sensor_id;sensor_type;location;lat;lon;timestamp;P1;durP1;ratioP1;P2;durP2;ratioP2
74177;SDS011;62540;48.456;-4.456;2023-05-20T00:02:03;17.50;;;17.50;;
74177;SDS011;62540;48.456;-4.456;2023-05-20T00:04:28;24.00;;;22.25;;
74177;SDS011;62540;48.456;-4.456;2023-05-20T00:06:54;22.25;;;21.00;;
74177;SDS011;62540;48.456;-4.456;2023-05-20T00:09:20;20.50;;;18.50;;
74177;SDS011;62540;48.456;-4.456;2023-05-20T00:11:45;24.75;;;23.25;;
74177;SDS011;62540;48.456;-4.456;2023-05-20T00:14:11;24.25;;;21.25;;
74177;SDS011;62540;48.456;-4.456;2023-05-20T00:16:36;24.25;;;22.00;;
74177;SDS011;62540;48.456;-4.456;2023-05-20T00:19:02;25.75;;;24.25;;
74177;SDS011;62540;48.456;-4.456;2023-05-20T00:21:27;28.25;;;26.75;;
74177;SDS011;62540;48.456;-4.456;2023-05-20T00:23:53;36.00;;;28.25;;
74177;SDS011;62540;48.456;-4.456;2023-05-20T00:26:19;27.00;;;22.50;;
74177;SDS011;62540;48.456;-4.456;2023-05-20T00:28:45;30.75;;;28.50;;
74177;SDS011;62540;48.456;-4.456;2023-05-20T00:31:10;36.25;;;27.00;;
74177;SDS011;62540;48.456;-4.456;2023-05-20T00:33:36;25.50;;;24.50;;
74177;SDS011;62540;48.456;-4.456;2023-05-20T00:36:01;26.75;;;23.75;;
74177;SDS011;62540;48.456;-4.456;2023-05-20T00:38:27;29.75;;;27.00;;
74177;SDS011;62540;48.456;-4.456;2023-05-20T00:40:52;24.25;;;22.50;;
74177;SDS011;62540;48.456;-4.456;2023-05-20T00:43:18;21.00;;;21.00;;
74177;SDS011;62540;48.456;-4.456;2023-05-20T00:45:45;25.00;;;23.25;;
74177;SDS011;62540;48.456;-4.456;2023-05-20T00:48:11;24.75;;;23.50;;
74177;SDS011;62540;48.456;-4.456;2023-05-20T00:50:37;24.75;;;23.75;;
74177;SDS011;62540;48.456;-4.456;2023-05-20T00:53:03;26.00;;;22.25;;
74177;SDS011;62540;48.456;-4.456;2023-05-20T00:55:29;27.00;;;25.00;;
74177;SDS011;62540;48.456;-4.456;2023-05-20T00:57:55;28.25;;;24.75;;
74177;SDS011;62540;48.456;-4.456;2023-05-20T01:00:21;31.50;;;28.00;;
74177;SDS011;62540;48.456;-4.456;2023-05-20T01:02:46;22.00;;;19.75;;
74177;SDS011;62540;48.456;-4.456;2023-05-20T01:05:11;25.25;;;23.25;;
74177;SDS011;62540;48.456;-4.456;2023-05-20T01:07:37;26.75;;;25.50;;
74177;SDS011;62540;48.456;-4.456;2023-05-20T01:10:02;26.75;;;26.00;;
74177;SDS011;62540;48.456;-4.456;2023-05-20T01:12:34;28.75;;;23.00;;
74177;SDS011;62540;48.456;-4.456;2023-05-20T01:15:10;25.25;;;23.75;;
74177;SDS011;62540;48.456;-4.456;2023-05-20T01:17:39;26.50;;;23.75;;
74177;SDS011;62540;48.456;-4.456;2023-05-20T01:20:11;24.50;;;23.50;;
74177;SDS011;62540;48.456;-4.456;2023-05-20T01:22:48;28.75;;;23.25;;
74177;SDS011;62540;48.456;-4.456;2023-05-20T01:25:13;25.25;;;23.75;;
74177;SDS011;62540;48.456;-4.456;2023-05-20T01:27:39;29.00;;;26.25;;
74177;SDS011;62540;48.456;-4.456;2023-05-20T01:30:04;27.25;;;24.50;;
74177;SDS011;62540;48.456;-4.456;2023-05-20T01:32:31;29.25;;;26.75;;
74177;SDS011;62540;48.456;-4.456;2023-05-20T01:35:01;27.00;;;25.75;;
74177;SDS011;62540;48.456;-4.456;2023-05-20T01:37:27;30.50;;;29.00;;
74177;SDS011;62540;48.456;-4.456;2023-05-20T01:39:54;31.50;;;30.25;;
74177;SDS011;62540;48.456;-4.456;2023-05-20T01:42:20;28.50;;;28.00;;
74177;SDS011;62540;48.456;-4.456;2023-05-20T01:44:47;24.50;;;24.50;;
74177;SDS011;62540;48.456;-4.456;2023-05-20T01:47:13;30.00;;;27.50;;
74177;SDS011;62540;48.456;-4.456;2023-05-20T01:49:38;27.75;;;25.00;;
74177;SDS011;62540;48.456;-4.456;2023-05-20T01:52:04;33.00;;;28.00;;
74177;SDS011;62540;48.456;-4.456;2023-05-20T01:54:29;35.50;;;30.75;;
74177;SDS011;62540;48.456;-4.456;2023-05-20T01:56:55;32.25;;;28.25;;
74177;SDS011;62540;48.456;-4.456;2023-05-20T01:59:20;25.50;;;23.50;;
74177;SDS011;62540;48.456;-4.456;2023-05-20T02:01:46;22.50;;;18.50;;
74177;SDS011;62540;48.456;-4.456;2023-05-20T02:04:11;32.00;;;25.75;;
74177;SDS011;62540;48.456;-4.456;2023-05-20T02:06:37;28.75;;;24.50;;
74177;SDS011;62540;48.456;-4.456;2023-05-20T02:09:02;27.25;;;23.75;;
74177;SDS011;62540;48.456;-4.456;2023-05-20T02:11:28;31.25;;;28.75;;
74177;SDS011;62540;48.456;-4.456;2023-05-20T02:13:53;31.25;;;26.00;;
74177;SDS011;62540;48.456;-4.456;2023-05-20T02:16:18;23.00;;;21.50;;
74177;SDS011;62540;48.456;-4.456;2023-05-20T02:18:44;25.25;;;23.75;;
74177;SDS011;62540;48.456;-4.456;2023-05-20T02:21:09;27.25;;;23.50;;
74177;SDS011;62540;48.456;-4.456;2023-05-20T02:23:35;26.00;;;24.25;;
74177;SDS011;62540;48.456;-4.456;2023-05-20T02:26:01;30.50;;;29.50;;
74177;SDS011;62540;48.456;-4.456;2023-05-20T02:28:26;29.25;;;26.25;;
74177;SDS011;62540;48.456;-4.456;2023-05-20T02:30:52;31.50;;;28.25;;
74177;SDS011;62540;48.456;-4.456;2023-05-20T02:33:18;31.50;;;27.75;;
74177;SDS011;62540;48.456;-4.456;2023-05-20T02:35:43;30.75;;;27.25;;
74177;SDS011;62540;48.456;-4.456;2023-05-20T02:38:09;25.25;;;22.50;;
74177;SDS011;62540;48.456;-4.456;2023-05-20T02:40:35;29.50;;;27.25;;
74177;SDS011;62540;48.456;-4.456;2023-05-20T02:43:01;30.50;;;26.25;;
74177;SDS011;62540;48.456;-4.456;2023-05-20T02:45:27;27.25;;;26.50;;
74177;SDS011;62540;48.456;-4.456;2023-05-20T02:47:52;25.50;;;24.00;;
74177;SDS011;62540;48.456;-4.456;2023-05-20T02:50:17;34.00;;;28.75;;
74177;SDS011;62540;48.456;-4.456;2023-05-20T02:52:43;30.50;;;28.50;;
74177;SDS011;62540;48.456;-4.456;2023-05-20T02:55:09;34.25;;;28.00;;
74177;SDS011;62540;48.456;-4.456;2023-05-20T02:57:35;28.50;;;24.50;;
74177;SDS011;62540;48.456;-4.456;2023-05-20T03:00:04;25.75;;;24.00;;
74177;SDS011;62540;48.456;-4.456;2023-05-20T03:02:31;29.50;;;25.00;;
74177;SDS011;62540;48.456;-4.456;2023-05-20T03:04:57;32.50;;;27.00;;
74177;SDS011;62540;48.456;-4.456;2023-05-20T03:07:23;29.25;;;26.25;;
74177;SDS011;62540;48.456;-4.456;2023-05-20T03:09:49;35.75;;;31.00;;
74177;SDS011;62540;48.456;-4.456;2023-05-20T03:12:14;37.50;;;30.25;;
74177;SDS011;62540;48.456;-4.456;2023-05-20T03:14:39;34.75;;;30.75;;
74177;SDS011;62540;48.456;-4.456;2023-05-20T03:17:05;29.25;;;27.00;;
74177;SDS011;62540;48.456;-4.456;2023-05-20T03:19:30;27.50;;;24.25;;
74177;SDS011;62540;48.456;-4.456;2023-05-20T03:21:56;35.50;;;30.75;;
74177;SDS011;62540;48.456;-4.456;2023-05-20T03:24:22;30.00;;;27.25;;
74177;SDS011;62540;48.456;-4.456;2023-05-20T03:26:47;25.25;;;23.00;;
74177;SDS011;62540;48.456;-4.456;2023-05-20T03:29:13;35.75;;;32.50;;
74177;SDS011;62540;48.456;-4.456;2023-05-20T03:31:39;27.50;;;26.75;;
74177;SDS011;62540;48.456;-4.456;2023-05-20T03:34:04;34.50;;;28.25;;
74177;SDS011;62540;48.456;-4.456;2023-05-20T03:36:30;36.75;;;28.00;;
74177;SDS011;62540;48.456;-4.456;2023-05-20T03:38:56;39.25;;;33.75;;
74177;SDS011;62540;48.456;-4.456;2023-05-20T03:41:21;39.25;;;33.50;;
74177;SDS011;62540;48.456;-4.456;2023-05-20T03:43:47;41.00;;;32.00;;
74177;SDS011;62540;48.456;-4.456;2023-05-20T03:46:12;37.75;;;32.25;;
74177;SDS011;62540;48.456;-4.456;2023-05-20T03:48:37;33.50;;;28.25;;
74177;SDS011;62540;48.456;-4.456;2023-05-20T03:51:03;34.25;;;30.00;;
74177;SDS011;62540;48.456;-4.456;2023-05-20T03:53:28;36.25;;;30.75;;
74177;SDS011;62540;48.456;-4.456;2023-05-20T03:55:54;37.00;;;33.00;;
74177;SDS011;62540;48.456;-4.456;2023-05-20T03:58:19;36.00;;;32.75;;
74177;SDS011;62540;48.456;-4.456;2023-05-20T04:00:46;37.50;;;33.00;;
74177;SDS011;62540;48.456;-4.456;2023-05-20T04:03:12;35.50;;;32.50;;
74177;SDS011;62540;48.456;-4.456;2023-05-20T04:05:38;34.00;;;31.00;;
74177;SDS011;62540;48.456;-4.456;2023-05-20T04:08:03;38.00;;;32.25;;
74177;SDS011;62540;48.456;-4.456;2023-05-20T04:10:29;35.50;;;31.00;;
74177;SDS011;62540;48.456;-4.456;2023-05-20T04:12:58;33.00;;;31.00;;
74177;SDS011;62540;48.456;-4.456;2023-05-20T04:15:23;35.00;;;28.00;;
74177;SDS011;62540;48.456;-4.456;2023-05-20T04:17:49;33.25;;;31.00;;
74177;SDS011;62540;48.456;-4.456;2023-05-20T04:20:16;34.25;;;31.50;;
74177;SDS011;62540;48.456;-4.456;2023-05-20T04:22:43;33.50;;;30.25;;
74177;SDS011;62540;48.456;-4.456;2023-05-20T04:25:08;33.25;;;30.50;;
74177;SDS011;62540;48.456;-4.456;2023-05-20T04:27:34;42.00;;;33.50;;
74177;SDS011;62540;48.456;-4.456;2023-05-20T04:30:01;34.00;;;28.50;;
74177;SDS011;62540;48.456;-4.456;2023-05-20T04:32:28;39.25;;;32.75;;
74177;SDS011;62540;48.456;-4.456;2023-05-20T04:34:54;36.00;;;30.75;;
74177;SDS011;62540;48.456;-4.456;2023-05-20T04:37:20;39.25;;;33.00;;
74177;SDS011;62540;48.456;-4.456;2023-05-20T04:39:46;36.00;;;32.00;;
74177;SDS011;62540;48.456;-4.456;2023-05-20T04:42:13;37.50;;;31.25;;
74177;SDS011;62540;48.456;-4.456;2023-05-20T04:44:39;35.25;;;32.00;;
74177;SDS011;62540;48.456;-4.456;2023-05-20T04:47:05;37.50;;;34.00;;
74177;SDS011;62540;48.456;-4.456;2023-05-20T04:49:32;33.25;;;30.00;;
74177;SDS011;62540;48.456;-4.456;2023-05-20T04:51:57;36.75;;;31.00;;
74177;SDS011;62540;48.456;-4.456;2023-05-20T04:54:23;34.75;;;32.50;;
74177;SDS011;62540;48.456;-4.456;2023-05-20T04:56:49;37.25;;;31.25;;
74177;SDS011;62540;48.456;-4.456;2023-05-20T04:59:15;45.25;;;34.50;;
74177;SDS011;62540;48.456;-4.456;2023-05-20T05:01:40;44.50;;;36.00;;
74177;SDS011;62540;48.456;-4.456;2023-05-20T05:04:06;42.75;;;34.00;;
74177;SDS011;62540;48.456;-4.456;2023-05-20T05:06:32;37.75;;;32.25;;
74177;SDS011;62540;48.456;-4.456;2023-05-20T05:08:57;47.00;;;37.00;;
74177;SDS011;62540;48.456;-4.456;2023-05-20T05:11:22;41.00;;;32.75;;
74177;SDS011;62540;48.456;-4.456;2023-05-20T05:13:48;37.75;;;33.75;;
74177;SDS011;62540;48.456;-4.456;2023-05-20T05:16:14;40.00;;;33.75;;
74177;SDS011;62540;48.456;-4.456;2023-05-20T05:18:39;35.50;;;32.50;;
74177;SDS011;62540;48.456;-4.456;2023-05-20T05:21:05;35.75;;;32.25;;
74177;SDS011;62540;48.456;-4.456;2023-05-20T05:23:31;41.50;;;33.75;;
74177;SDS011;62540;48.456;-4.456;2023-05-20T05:25:57;36.50;;;30.25;;
74177;SDS011;62540;48.456;-4.456;2023-05-20T05:28:23;37.50;;;29.50;;
74177;SDS011;62540;48.456;-4.456;2023-05-20T05:30:49;40.25;;;32.75;;
74177;SDS011;62540;48.456;-4.456;2023-05-20T05:33:14;37.50;;;33.75;;
74177;SDS011;62540;48.456;-4.456;2023-05-20T05:35:40;37.50;;;32.00;;
74177;SDS011;62540;48.456;-4.456;2023-05-20T05:38:06;39.00;;;34.50;;
74177;SDS011;62540;48.456;-4.456;2023-05-20T05:40:31;41.75;;;33.25;;
74177;SDS011;62540;48.456;-4.456;2023-05-20T05:42:57;35.00;;;30.75;;
74177;SDS011;62540;48.456;-4.456;2023-05-20T05:45:22;38.75;;;32.25;;
74177;SDS011;62540;48.456;-4.456;2023-05-20T05:47:48;35.25;;;31.00;;
74177;SDS011;62540;48.456;-4.456;2023-05-20T05:50:13;29.50;;;28.00;;
74177;SDS011;62540;48.456;-4.456;2023-05-20T05:52:38;36.00;;;28.75;;
74177;SDS011;62540;48.456;-4.456;2023-05-20T05:55:05;34.25;;;31.50;;
74177;SDS011;62540;48.456;-4.456;2023-05-20T05:57:31;32.00;;;29.75;;
74177;SDS011;62540;48.456;-4.456;2023-05-20T05:59:56;30.50;;;26.00;;
74177;SDS011;62540;48.456;-4.456;2023-05-20T06:02:22;24.25;;;22.75;;
74177;SDS011;62540;48.456;-4.456;2023-05-20T06:04:47;30.50;;;26.25;;
74177;SDS011;62540;48.456;-4.456;2023-05-20T06:07:13;24.50;;;23.50;;
74177;SDS011;62540;48.456;-4.456;2023-05-20T06:09:38;23.00;;;21.25;;
74177;SDS011;62540;48.456;-4.456;2023-05-20T06:12:04;34.75;;;28.50;;
74177;SDS011;62540;48.456;-4.456;2023-05-20T06:14:29;34.50;;;27.50;;
74177;SDS011;62540;48.456;-4.456;2023-05-20T06:16:56;26.00;;;26.00;;
74177;SDS011;62540;48.456;-4.456;2023-05-20T06:19:21;25.75;;;22.75;;
74177;SDS011;62540;48.456;-4.456;2023-05-20T06:21:47;23.00;;;22.00;;
74177;SDS011;62540;48.456;-4.456;2023-05-20T06:24:12;26.75;;;24.50;;
74177;SDS011;62540;48.456;-4.456;2023-05-20T06:26:38;30.50;;;27.50;;
74177;SDS011;62540;48.456;-4.456;2023-05-20T06:29:03;25.25;;;23.50;;
74177;SDS011;62540;48.456;-4.456;2023-05-20T06:31:29;25.00;;;22.75;;
74177;SDS011;62540;48.456;-4.456;2023-05-20T06:33:54;26.50;;;23.75;;
74177;SDS011;62540;48.456;-4.456;2023-05-20T06:36:20;24.75;;;20.00;;
74177;SDS011;62540;48.456;-4.456;2023-05-20T06:38:45;22.25;;;19.75;;
74177;SDS011;62540;48.456;-4.456;2023-05-20T06:41:11;28.50;;;26.50;;
74177;SDS011;62540;48.456;-4.456;2023-05-20T06:43:37;25.50;;;22.25;;
74177;SDS011;62540;48.456;-4.456;2023-05-20T06:46:02;29.25;;;20.25;;
74177;SDS011;62540;48.456;-4.456;2023-05-20T06:48:28;28.00;;;23.50;;
74177;SDS011;62540;48.456;-4.456;2023-05-20T06:50:53;27.00;;;24.00;;
74177;SDS011;62540;48.456;-4.456;2023-05-20T06:53:18;23.00;;;21.00;;
74177;SDS011;62540;48.456;-4.456;2023-05-20T06:55:44;22.00;;;17.50;;
74177;SDS011;62540;48.456;-4.456;2023-05-20T06:58:09;23.25;;;22.00;;
74177;SDS011;62540;48.456;-4.456;2023-05-20T07:00:35;24.75;;;22.50;;
74177;SDS011;62540;48.456;-4.456;2023-05-20T07:03:00;29.25;;;26.00;;
74177;SDS011;62540;48.456;-4.456;2023-05-20T07:05:26;26.75;;;22.50;;
74177;SDS011;62540;48.456;-4.456;2023-05-20T07:07:52;30.25;;;29.00;;
74177;SDS011;62540;48.456;-4.456;2023-05-20T07:10:18;32.00;;;28.00;;
74177;SDS011;62540;48.456;-4.456;2023-05-20T07:12:43;27.50;;;23.75;;
74177;SDS011;62540;48.456;-4.456;2023-05-20T07:15:09;34.50;;;29.75;;
74177;SDS011;62540;48.456;-4.456;2023-05-20T07:17:35;29.25;;;26.25;;
74177;SDS011;62540;48.456;-4.456;2023-05-20T07:20:01;39.00;;;28.75;;
74177;SDS011;62540;48.456;-4.456;2023-05-20T07:22:28;36.25;;;32.00;;
74177;SDS011;62540;48.456;-4.456;2023-05-20T07:24:53;34.25;;;29.25;;
74177;SDS011;62540;48.456;-4.456;2023-05-20T07:27:19;32.75;;;28.25;;
74177;SDS011;62540;48.456;-4.456;2023-05-20T07:29:44;32.25;;;29.25;;
74177;SDS011;62540;48.456;-4.456;2023-05-20T07:32:10;32.00;;;29.25;;
74177;SDS011;62540;48.456;-4.456;2023-05-20T07:34:35;32.25;;;27.00;;
74177;SDS011;62540;48.456;-4.456;2023-05-20T07:37:01;32.75;;;27.25;;
74177;SDS011;62540;48.456;-4.456;2023-05-20T07:39:27;34.00;;;30.00;;
74177;SDS011;62540;48.456;-4.456;2023-05-20T07:41:53;25.25;;;22.75;;
74177;SDS011;62540;48.456;-4.456;2023-05-20T07:44:18;31.75;;;26.50;;
74177;SDS011;62540;48.456;-4.456;2023-05-20T07:46:46;23.00;;;21.75;;
74177;SDS011;62540;48.456;-4.456;2023-05-20T07:49:11;28.25;;;25.75;;
74177;SDS011;62540;48.456;-4.456;2023-05-20T07:51:37;25.25;;;24.50;;
74177;SDS011;62540;48.456;-4.456;2023-05-20T07:54:02;35.75;;;29.75;;
74177;SDS011;62540;48.456;-4.456;2023-05-20T07:56:28;18.75;;;18.00;;
74177;SDS011;62540;48.456;-4.456;2023-05-20T07:58:54;25.50;;;21.25;;
74177;SDS011;62540;48.456;-4.456;2023-05-20T08:01:22;24.25;;;21.75;;
74177;SDS011;62540;48.456;-4.456;2023-05-20T08:03:47;22.25;;;21.00;;
74177;SDS011;62540;48.456;-4.456;2023-05-20T08:06:13;25.00;;;20.00;;
74177;SDS011;62540;48.456;-4.456;2023-05-20T08:08:38;20.00;;;18.25;;
74177;SDS011;62540;48.456;-4.456;2023-05-20T08:11:05;20.75;;;18.25;;
74177;SDS011;62540;48.456;-4.456;2023-05-20T08:13:31;16.00;;;13.25;;
74177;SDS011;62540;48.456;-4.456;2023-05-20T08:15:57;17.75;;;17.25;;
74177;SDS011;62540;48.456;-4.456;2023-05-20T08:18:22;19.00;;;17.25;;
74177;SDS011;62540;48.456;-4.456;2023-05-20T08:20:48;19.25;;;18.50;;
74177;SDS011;62540;48.456;-4.456;2023-05-20T08:23:13;19.25;;;16.25;;
74177;SDS011;62540;48.456;-4.456;2023-05-20T08:25:38;23.00;;;19.25;;
74177;SDS011;62540;48.456;-4.456;2023-05-20T08:28:04;14.75;;;13.50;;
74177;SDS011;62540;48.456;-4.456;2023-05-20T08:30:31;18.50;;;16.00;;
74177;SDS011;62540;48.456;-4.456;2023-05-20T08:32:56;16.75;;;13.50;;
74177;SDS011;62540;48.456;-4.456;2023-05-20T08:35:22;10.25;;;9.25;;
74177;SDS011;62540;48.456;-4.456;2023-05-20T08:37:48;19.75;;;16.00;;
74177;SDS011;62540;48.456;-4.456;2023-05-20T08:40:13;18.00;;;15.75;;
74177;SDS011;62540;48.456;-4.456;2023-05-20T08:42:42;17.75;;;16.00;;
74177;SDS011;62540;48.456;-4.456;2023-05-20T08:45:11;13.00;;;12.25;;
74177;SDS011;62540;48.456;-4.456;2023-05-20T08:47:40;19.50;;;15.50;;
74177;SDS011;62540;48.456;-4.456;2023-05-20T08:50:11;13.25;;;13.25;;
74177;SDS011;62540;48.456;-4.456;2023-05-20T08:52:41;23.50;;;20.25;;
74177;SDS011;62540;48.456;-4.456;2023-05-20T08:55:10;16.50;;;15.25;;
74177;SDS011;62540;48.456;-4.456;2023-05-20T08:57:38;25.50;;;21.00;;
74177;SDS011;62540;48.456;-4.456;2023-05-20T09:00:06;19.00;;;16.00;;
74177;SDS011;62540;48.456;-4.456;2023-05-20T09:02:37;15.25;;;15.25;;
74177;SDS011;62540;48.456;-4.456;2023-05-20T09:05:05;19.25;;;17.00;;
74177;SDS011;62540;48.456;-4.456;2023-05-20T09:07:31;24.00;;;20.00;;
74177;SDS011;62540;48.456;-4.456;2023-05-20T09:09:56;20.50;;;15.00;;
74177;SDS011;62540;48.456;-4.456;2023-05-20T09:12:22;20.00;;;14.50;;
74177;SDS011;62540;48.456;-4.456;2023-05-20T09:14:48;14.25;;;14.00;;
74177;SDS011;62540;48.456;-4.456;2023-05-20T09:17:14;21.00;;;15.25;;
74177;SDS011;62540;48.456;-4.456;2023-05-20T09:19:39;13.25;;;11.50;;
74177;SDS011;62540;48.456;-4.456;2023-05-20T09:22:05;15.50;;;13.00;;
74177;SDS011;62540;48.456;-4.456;2023-05-20T09:24:31;14.50;;;12.25;;
74177;SDS011;62540;48.456;-4.456;2023-05-20T09:26:56;17.25;;;13.50;;
74177;SDS011;62540;48.456;-4.456;2023-05-20T09:29:22;12.50;;;11.25;;
74177;SDS011;62540;48.456;-4.456;2023-05-20T09:31:48;11.50;;;11.00;;
74177;SDS011;62540;48.456;-4.456;2023-05-20T09:34:14;12.00;;;9.50;;
74177;SDS011;62540;48.456;-4.456;2023-05-20T09:36:41;9.00;;;7.00;;
74177;SDS011;62540;48.456;-4.456;2023-05-20T09:39:08;8.00;;;7.00;;
74177;SDS011;62540;48.456;-4.456;2023-05-20T09:41:39;10.25;;;8.00;;
74177;SDS011;62540;48.456;-4.456;2023-05-20T09:44:19;9.75;;;7.50;;
74177;SDS011;62540;48.456;-4.456;2023-05-20T09:46:46;5.25;;;5.00;;
74177;SDS011;62540;48.456;-4.456;2023-05-20T09:49:13;7.00;;;6.00;;
74177;SDS011;62540;48.456;-4.456;2023-05-20T09:51:40;6.00;;;6.00;;
74177;SDS011;62540;48.456;-4.456;2023-05-20T09:54:07;8.00;;;6.25;;
74177;SDS011;62540;48.456;-4.456;2023-05-20T09:56:33;6.50;;;5.25;;
74177;SDS011;62540;48.456;-4.456;2023-05-20T09:58:59;5.00;;;4.50;;
74177;SDS011;62540;48.456;-4.456;2023-05-20T10:01:25;7.50;;;5.75;;
74177;SDS011;62540;48.456;-4.456;2023-05-20T10:03:51;5.75;;;4.25;;
74177;SDS011;62540;48.456;-4.456;2023-05-20T10:06:31;7.25;;;6.00;;
74177;SDS011;62540;48.456;-4.456;2023-05-20T10:19:58;7.25;;;6.50;;
74177;SDS011;62540;48.456;-4.456;2023-05-20T10:22:25;7.50;;;7.50;;
74177;SDS011;62540;48.456;-4.456;2023-05-20T10:24:57;7.75;;;7.75;;
74177;SDS011;62540;48.456;-4.456;2023-05-20T10:27:24;5.25;;;5.00;;
74177;SDS011;62540;48.456;-4.456;2023-05-20T10:29:50;6.75;;;6.25;;
74177;SDS011;62540;48.456;-4.456;2023-05-20T10:32:27;6.00;;;5.75;;
74177;SDS011;62540;48.456;-4.456;2023-05-20T10:35:01;6.00;;;5.00;;
74177;SDS011;62540;48.456;-4.456;2023-05-20T10:37:31;7.00;;;5.50;;
74177;SDS011;62540;48.456;-4.456;2023-05-20T10:40:07;10.00;;;5.50;;
74177;SDS011;62540;48.456;-4.456;2023-05-20T10:42:33;10.00;;;7.00;;
74177;SDS011;62540;48.456;-4.456;2023-05-20T10:44:58;6.00;;;5.00;;
74177;SDS011;62540;48.456;-4.456;2023-05-20T10:47:24;6.75;;;6.00;;
74177;SDS011;62540;48.456;-4.456;2023-05-20T10:49:49;6.00;;;5.00;;
74177;SDS011;62540;48.456;-4.456;2023-05-20T10:52:16;7.25;;;7.00;;
74177;SDS011;62540;48.456;-4.456;2023-05-20T10:54:42;6.75;;;5.25;;
74177;SDS011;62540;48.456;-4.456;2023-05-20T10:57:11;6.25;;;6.25;;
74177;SDS011;62540;48.456;-4.456;2023-05-20T10:59:37;6.25;;;4.50;;
74177;SDS011;62540;48.456;-4.456;2023-05-20T11:02:02;7.00;;;7.00;;
74177;SDS011;62540;48.456;-4.456;2023-05-20T11:04:28;8.25;;;6.25;;
74177;SDS011;62540;48.456;-4.456;2023-05-20T11:06:55;6.75;;;5.75;;
74177;SDS011;62540;48.456;-4.456;2023-05-20T11:09:22;5.75;;;5.00;;
74177;SDS011;62540;48.456;-4.456;2023-05-20T11:11:48;7.25;;;6.75;;
74177;SDS011;62540;48.456;-4.456;2023-05-20T11:14:15;6.00;;;6.00;;
74177;SDS011;62540;48.456;-4.456;2023-05-20T11:16:42;5.25;;;4.00;;
74177;SDS011;62540;48.456;-4.456;2023-05-20T11:19:13;6.50;;;5.25;;
74177;SDS011;62540;48.456;-4.456;2023-05-20T11:21:43;7.25;;;6.50;;
74177;SDS011;62540;48.456;-4.456;2023-05-20T11:24:12;9.25;;;6.00;;
74177;SDS011;62540;48.456;-4.456;2023-05-20T11:26:37;8.00;;;7.25;;
74177;SDS011;62540;48.456;-4.456;2023-05-20T11:29:03;7.25;;;7.00;;
74177;SDS011;62540;48.456;-4.456;2023-05-20T11:31:29;5.00;;;5.00;;
74177;SDS011;62540;48.456;-4.456;2023-05-20T11:33:56;9.00;;;8.25;;
74177;SDS011;62540;48.456;-4.456;2023-05-20T11:36:25;7.00;;;6.25;;
74177;SDS011;62540;48.456;-4.456;2023-05-20T11:38:52;9.25;;;8.25;;
74177;SDS011;62540;48.456;-4.456;2023-05-20T11:41:22;14.50;;;10.00;;
74177;SDS011;62540;48.456;-4.456;2023-05-20T11:43:54;13.25;;;10.75;;
74177;SDS011;62540;48.456;-4.456;2023-05-20T11:46:23;12.25;;;10.00;;
74177;SDS011;62540;48.456;-4.456;2023-05-20T11:48:55;12.50;;;11.50;;
74177;SDS011;62540;48.456;-4.456;2023-05-20T11:51:30;13.00;;;12.25;;
74177;SDS011;62540;48.456;-4.456;2023-05-20T11:54:00;14.50;;;12.50;;
74177;SDS011;62540;48.456;-4.456;2023-05-20T11:56:27;12.00;;;10.00;;
74177;SDS011;62540;48.456;-4.456;2023-05-20T11:58:55;13.25;;;12.50;;
74177;SDS011;62540;48.456;-4.456;2023-05-20T12:01:24;11.00;;;9.75;;
74177;SDS011;62540;48.456;-4.456;2023-05-20T12:03:49;14.50;;;12.75;;
74177;SDS011;62540;48.456;-4.456;2023-05-20T12:06:15;15.25;;;13.25;;
74177;SDS011;62540;48.456;-4.456;2023-05-20T12:08:41;12.50;;;12.00;;
74177;SDS011;62540;48.456;-4.456;2023-05-20T12:11:06;11.50;;;11.00;;
74177;SDS011;62540;48.456;-4.456;2023-05-20T12:13:32;12.50;;;12.25;;
74177;SDS011;62540;48.456;-4.456;2023-05-20T12:15:57;14.00;;;13.75;;
74177;SDS011;62540;48.456;-4.456;2023-05-20T12:18:23;17.75;;;13.25;;
74177;SDS011;62540;48.456;-4.456;2023-05-20T12:20:48;13.50;;;10.00;;
74177;SDS011;62540;48.456;-4.456;2023-05-20T12:23:13;11.75;;;10.75;;
74177;SDS011;62540;48.456;-4.456;2023-05-20T12:25:39;14.75;;;13.50;;
74177;SDS011;62540;48.456;-4.456;2023-05-20T12:28:04;14.50;;;9.50;;
74177;SDS011;62540;48.456;-4.456;2023-05-20T12:30:30;12.75;;;10.75;;
74177;SDS011;62540;48.456;-4.456;2023-05-20T12:32:56;12.00;;;10.25;;
74177;SDS011;62540;48.456;-4.456;2023-05-20T12:35:25;13.50;;;11.25;;
74177;SDS011;62540;48.456;-4.456;2023-05-20T12:38:00;10.25;;;10.00;;
74177;SDS011;62540;48.456;-4.456;2023-05-20T12:40:26;10.00;;;8.25;;
74177;SDS011;62540;48.456;-4.456;2023-05-20T12:42:51;12.25;;;11.75;;
74177;SDS011;62540;48.456;-4.456;2023-05-20T12:45:16;11.75;;;9.25;;
74177;SDS011;62540;48.456;-4.456;2023-05-20T12:47:42;12.00;;;10.00;;
74177;SDS011;62540;48.456;-4.456;2023-05-20T12:50:08;14.50;;;12.50;;
74177;SDS011;62540;48.456;-4.456;2023-05-20T12:52:34;6.50;;;6.00;;
74177;SDS011;62540;48.456;-4.456;2023-05-20T12:54:59;10.25;;;10.25;;
74177;SDS011;62540;48.456;-4.456;2023-05-20T12:57:25;12.25;;;9.00;;
74177;SDS011;62540;48.456;-4.456;2023-05-20T12:59:50;12.75;;;10.75;;
74177;SDS011;62540;48.456;-4.456;2023-05-20T13:02:16;10.00;;;9.50;;
74177;SDS011;62540;48.456;-4.456;2023-05-20T13:04:41;11.00;;;8.00;;
74177;SDS011;62540;48.456;-4.456;2023-05-20T13:07:06;7.50;;;7.00;;
74177;SDS011;62540;48.456;-4.456;2023-05-20T13:09:32;9.00;;;7.00;;
74177;SDS011;62540;48.456;-4.456;2023-05-20T13:11:58;10.50;;;8.00;;
74177;SDS011;62540;48.456;-4.456;2023-05-20T13:14:24;7.00;;;6.50;;
74177;SDS011;62540;48.456;-4.456;2023-05-20T13:16:50;10.25;;;8.75;;
74177;SDS011;62540;48.456;-4.456;2023-05-20T13:19:22;10.50;;;9.00;;
74177;SDS011;62540;48.456;-4.456;2023-05-20T13:21:49;10.50;;;9.50;;
74177;SDS011;62540;48.456;-4.456;2023-05-20T13:24:16;10.00;;;8.50;;
74177;SDS011;62540;48.456;-4.456;2023-05-20T13:26:41;11.00;;;9.00;;
74177;SDS011;62540;48.456;-4.456;2023-05-20T13:29:07;9.75;;;8.50;;
74177;SDS011;62540;48.456;-4.456;2023-05-20T13:31:33;10.00;;;9.00;;
74177;SDS011;62540;48.456;-4.456;2023-05-20T13:33:58;8.25;;;7.50;;
74177;SDS011;62540;48.456;-4.456;2023-05-20T13:36:25;6.00;;;5.50;;
74177;SDS011;62540;48.456;-4.456;2023-05-20T13:38:50;6.75;;;6.25;;
74177;SDS011;62540;48.456;-4.456;2023-05-20T13:41:16;7.75;;;6.25;;
74177;SDS011;62540;48.456;-4.456;2023-05-20T13:43:41;6.75;;;6.25;;
74177;SDS011;62540;48.456;-4.456;2023-05-20T13:46:07;7.75;;;6.50;;
74177;SDS011;62540;48.456;-4.456;2023-05-20T13:48:33;7.50;;;5.75;;
74177;SDS011;62540;48.456;-4.456;2023-05-20T13:50:58;5.75;;;4.00;;
74177;SDS011;62540;48.456;-4.456;2023-05-20T13:53:25;4.00;;;3.75;;
74177;SDS011;62540;48.456;-4.456;2023-05-20T13:55:51;9.50;;;6.75;;
74177;SDS011;62540;48.456;-4.456;2023-05-20T13:58:16;5.75;;;5.00;;
74177;SDS011;62540;48.456;-4.456;2023-05-20T14:00:42;8.50;;;5.25;;
74177;SDS011;62540;48.456;-4.456;2023-05-20T14:03:07;7.75;;;6.25;;
74177;SDS011;62540;48.456;-4.456;2023-05-20T14:05:34;7.25;;;7.00;;
74177;SDS011;62540;48.456;-4.456;2023-05-20T14:08:00;6.75;;;6.00;;
74177;SDS011;62540;48.456;-4.456;2023-05-20T14:10:26;7.75;;;6.25;;
74177;SDS011;62540;48.456;-4.456;2023-05-20T14:12:52;6.50;;;6.00;;
74177;SDS011;62540;48.456;-4.456;2023-05-20T14:15:18;6.75;;;6.75;;
74177;SDS011;62540;48.456;-4.456;2023-05-20T14:17:44;7.25;;;5.50;;
74177;SDS011;62540;48.456;-4.456;2023-05-20T14:20:10;9.75;;;6.25;;